TRA2A EHAM-LGZA
Flight info
| Callsign | TRA2A |
|---|---|
| Flight time | N/A |
| Altitude | 35000 |
| Route | EDUPO Z739 MISGO DCT DIXAT DCT DOJOH DCT DODEN DCT NEGIX DCT DINKU M867 XERUM DCT BAVAX DCT RADIZ DCT AIOSA DCT LUPAL DCT LATAN UM872 ASTUS |
| Aircraft | B738/M-SDE2E3FGHIJ1RWXYZ/LB1 |
Departure
| Time | N/A |
|---|---|
| Airport | Amsterdam Airport Schiphol (EHAM) |
Arrival
| Time | 2026-05-08 19:49 |
|---|---|
| Airport | Zakynthos International Airport Dionysios Solomos (LGZA) |
| Time | Latitude | Longitude | Altitude | Speed | Heading |
|---|---|---|---|---|---|
| 2026-05-08 18:17 | 46.00571 | 13.99266 | 37024 ft | 455 kts | 153° |
| 2026-05-08 18:18 | 45.95146 | 14.03958 | 37041 ft | 455 kts | 153° |
| 2026-05-08 18:18 | 45.89745 | 14.08618 | 37040 ft | 456 kts | 153° |
| 2026-05-08 18:19 | 45.84303 | 14.13303 | 37041 ft | 456 kts | 153° |
| 2026-05-08 18:19 | 45.78848 | 14.17989 | 37037 ft | 457 kts | 153° |
| 2026-05-08 18:20 | 45.73387 | 14.22668 | 37039 ft | 458 kts | 153° |
| 2026-05-08 18:20 | 45.67919 | 14.27343 | 37044 ft | 458 kts | 153° |
| 2026-05-08 18:21 | 45.62451 | 14.32008 | 37040 ft | 458 kts | 153° |
| 2026-05-08 18:21 | 45.56975 | 14.36668 | 37039 ft | 458 kts | 153° |
| 2026-05-08 18:22 | 45.51502 | 14.41315 | 37034 ft | 457 kts | 153° |
| 2026-05-08 18:22 | 45.46027 | 14.45953 | 37037 ft | 457 kts | 153° |
| 2026-05-08 18:23 | 45.40599 | 14.50541 | 37011 ft | 456 kts | 153° |
| 2026-05-08 18:23 | 45.35140 | 14.55144 | 37007 ft | 455 kts | 153° |
| 2026-05-08 18:24 | 45.29679 | 14.59739 | 37015 ft | 455 kts | 153° |
| 2026-05-08 18:24 | 45.24234 | 14.64310 | 37029 ft | 455 kts | 153° |
| 2026-05-08 18:25 | 45.18827 | 14.68839 | 37042 ft | 454 kts | 153° |
| 2026-05-08 18:25 | 45.13382 | 14.73389 | 37041 ft | 454 kts | 153° |
| 2026-05-08 18:26 | 45.07934 | 14.77931 | 37033 ft | 454 kts | 153° |
| 2026-05-08 18:26 | 45.02483 | 14.82467 | 37043 ft | 455 kts | 153° |
| 2026-05-08 18:27 | 44.97902 | 14.86270 | 37041 ft | 456 kts | 153° |
| 2026-05-08 18:27 | 44.91528 | 14.91550 | 37044 ft | 457 kts | 153° |
| 2026-05-08 18:28 | 44.86030 | 14.96093 | 37054 ft | 459 kts | 153° |
| 2026-05-08 18:28 | 44.80548 | 15.00613 | 37050 ft | 460 kts | 153° |
| 2026-05-08 18:29 | 44.75010 | 15.05169 | 37042 ft | 462 kts | 153° |
| 2026-05-08 18:29 | 44.69460 | 15.09726 | 37062 ft | 462 kts | 154° |
| 2026-05-08 18:30 | 44.63886 | 15.14291 | 37069 ft | 464 kts | 153° |
| 2026-05-08 18:30 | 44.58292 | 15.18862 | 37051 ft | 465 kts | 153° |
| 2026-05-08 18:31 | 44.52699 | 15.23423 | 37042 ft | 463 kts | 154° |
| 2026-05-08 18:31 | 44.47164 | 15.27928 | 37055 ft | 463 kts | 154° |
| 2026-05-08 18:32 | 44.41593 | 15.32449 | 37052 ft | 463 kts | 154° |
| 2026-05-08 18:32 | 44.36018 | 15.36965 | 37052 ft | 463 kts | 154° |
| 2026-05-08 18:33 | 44.30437 | 15.41475 | 37049 ft | 463 kts | 154° |
| 2026-05-08 18:33 | 44.24857 | 15.45974 | 37043 ft | 463 kts | 154° |
| 2026-05-08 18:34 | 44.19309 | 15.50437 | 37052 ft | 463 kts | 154° |
| 2026-05-08 18:34 | 44.13720 | 15.54925 | 37050 ft | 464 kts | 154° |
| 2026-05-08 18:35 | 44.08119 | 15.59410 | 37044 ft | 464 kts | 154° |
| 2026-05-08 18:35 | 44.02510 | 15.63893 | 37058 ft | 466 kts | 154° |
| 2026-05-08 18:36 | 43.96882 | 15.68381 | 37036 ft | 467 kts | 154° |
| 2026-05-08 18:36 | 43.91249 | 15.72864 | 37050 ft | 467 kts | 154° |
| 2026-05-08 18:37 | 43.85591 | 15.77356 | 37047 ft | 468 kts | 154° |
| 2026-05-08 18:37 | 43.79933 | 15.81839 | 37046 ft | 469 kts | 154° |
| 2026-05-08 18:38 | 43.74253 | 15.86329 | 37042 ft | 470 kts | 154° |
| 2026-05-08 18:38 | 43.68596 | 15.90791 | 37048 ft | 472 kts | 154° |
| 2026-05-08 18:39 | 43.62886 | 15.95284 | 37038 ft | 472 kts | 155° |
| 2026-05-08 18:39 | 43.57172 | 15.99772 | 37030 ft | 473 kts | 154° |
| 2026-05-08 18:40 | 43.51450 | 16.04256 | 37028 ft | 472 kts | 154° |
| 2026-05-08 18:40 | 43.45739 | 16.08722 | 37001 ft | 471 kts | 155° |
| 2026-05-08 18:41 | 43.40046 | 16.13164 | 37024 ft | 470 kts | 155° |
| 2026-05-08 18:41 | 43.34392 | 16.17565 | 37026 ft | 469 kts | 155° |
| 2026-05-08 18:42 | 43.28709 | 16.21979 | 37026 ft | 469 kts | 155° |
| 2026-05-08 18:42 | 43.23017 | 16.26389 | 37011 ft | 470 kts | 155° |
| 2026-05-08 18:43 | 43.17284 | 16.30823 | 37036 ft | 471 kts | 155° |
| 2026-05-08 18:43 | 43.11597 | 16.35210 | 37042 ft | 473 kts | 155° |
| 2026-05-08 18:44 | 43.05849 | 16.39637 | 37040 ft | 474 kts | 155° |
| 2026-05-08 18:44 | 43.00084 | 16.44066 | 37032 ft | 476 kts | 155° |
| 2026-05-08 18:45 | 42.94301 | 16.48500 | 37046 ft | 477 kts | 155° |
| 2026-05-08 18:45 | 42.88485 | 16.52949 | 37048 ft | 479 kts | 155° |
| 2026-05-08 18:46 | 42.82692 | 16.57372 | 37044 ft | 481 kts | 155° |
| 2026-05-08 18:46 | 42.76852 | 16.61821 | 37038 ft | 482 kts | 156° |
| 2026-05-08 18:47 | 42.70990 | 16.66276 | 37047 ft | 482 kts | 156° |
| 2026-05-08 18:47 | 42.65121 | 16.70727 | 37033 ft | 483 kts | 156° |
| 2026-05-08 18:48 | 42.59249 | 16.75171 | 37049 ft | 483 kts | 156° |
| 2026-05-08 18:48 | 42.53368 | 16.79612 | 37039 ft | 483 kts | 156° |
| 2026-05-08 18:49 | 42.47491 | 16.84040 | 37046 ft | 484 kts | 156° |
| 2026-05-08 18:49 | 42.41605 | 16.88466 | 37037 ft | 484 kts | 156° |
| 2026-05-08 18:50 | 42.35719 | 16.92881 | 37017 ft | 484 kts | 156° |
| 2026-05-08 18:50 | 42.30829 | 16.96543 | 37046 ft | 483 kts | 156° |
| 2026-05-08 18:51 | 42.24943 | 17.00941 | 37041 ft | 483 kts | 156° |
| 2026-05-08 18:51 | 42.18097 | 17.06045 | 37037 ft | 483 kts | 156° |
| 2026-05-08 18:52 | 42.13188 | 17.09697 | 37025 ft | 483 kts | 156° |
| 2026-05-08 18:52 | 42.07298 | 17.14071 | 37041 ft | 483 kts | 156° |
| 2026-05-08 18:53 | 42.01401 | 17.18441 | 37042 ft | 484 kts | 156° |
| 2026-05-08 18:53 | 41.95501 | 17.22804 | 37041 ft | 484 kts | 157° |
| 2026-05-08 18:54 | 41.89550 | 17.27035 | 37027 ft | 482 kts | 160° |
| 2026-05-08 18:54 | 41.83507 | 17.30899 | 37040 ft | 481 kts | 161° |
| 2026-05-08 18:55 | 41.74426 | 17.36617 | 37040 ft | 481 kts | 160° |
| 2026-05-08 18:56 | 41.68375 | 17.40472 | 37021 ft | 481 kts | 160° |
| 2026-05-08 18:56 | 41.62338 | 17.44329 | 37033 ft | 481 kts | 160° |
| 2026-05-08 18:57 | 41.56299 | 17.48182 | 37032 ft | 481 kts | 160° |
| 2026-05-08 18:57 | 41.50254 | 17.52029 | 37031 ft | 481 kts | 160° |
| 2026-05-08 18:58 | 41.44236 | 17.55849 | 37031 ft | 482 kts | 160° |
| 2026-05-08 18:58 | 41.38179 | 17.59686 | 37030 ft | 482 kts | 160° |
| 2026-05-08 18:59 | 41.32119 | 17.63517 | 37021 ft | 482 kts | 160° |
| 2026-05-08 18:59 | 41.26058 | 17.67341 | 37022 ft | 482 kts | 161° |
| 2026-05-08 19:00 | 41.19977 | 17.71170 | 37014 ft | 482 kts | 161° |
| 2026-05-08 19:00 | 41.13959 | 17.74951 | 37004 ft | 482 kts | 161° |
| 2026-05-08 19:01 | 41.07890 | 17.78756 | 37019 ft | 482 kts | 161° |
| 2026-05-08 19:01 | 41.01823 | 17.82552 | 37013 ft | 483 kts | 161° |
| 2026-05-08 19:02 | 40.95740 | 17.86351 | 37003 ft | 483 kts | 161° |
| 2026-05-08 19:02 | 40.89661 | 17.90139 | 37005 ft | 483 kts | 161° |
| 2026-05-08 19:03 | 40.83569 | 17.93927 | 37009 ft | 484 kts | 161° |
| 2026-05-08 19:03 | 40.77498 | 17.97694 | 36997 ft | 485 kts | 161° |
| 2026-05-08 19:04 | 40.71398 | 18.01473 | 36991 ft | 485 kts | 161° |
| 2026-05-08 19:04 | 40.65286 | 18.05251 | 36997 ft | 485 kts | 161° |
| 2026-05-08 19:05 | 40.59161 | 18.09029 | 36997 ft | 486 kts | 161° |
| 2026-05-08 19:05 | 40.53027 | 18.12805 | 36969 ft | 487 kts | 161° |
| 2026-05-08 19:06 | 40.46889 | 18.16576 | 36997 ft | 487 kts | 161° |
| 2026-05-08 19:06 | 40.40734 | 18.20349 | 37004 ft | 488 kts | 161° |
| 2026-05-08 19:07 | 40.34608 | 18.24097 | 37003 ft | 489 kts | 161° |
| 2026-05-08 19:07 | 40.28441 | 18.27863 | 36986 ft | 489 kts | 161° |
| 2026-05-08 19:08 | 40.22253 | 18.31635 | 36994 ft | 490 kts | 161° |
| 2026-05-08 19:08 | 40.16065 | 18.35398 | 37010 ft | 490 kts | 161° |
| 2026-05-08 19:09 | 40.09869 | 18.39159 | 37011 ft | 491 kts | 161° |
| 2026-05-08 19:09 | 40.03721 | 18.42883 | 37016 ft | 490 kts | 162° |
| 2026-05-08 19:10 | 39.97531 | 18.46626 | 37021 ft | 490 kts | 162° |
| 2026-05-08 19:10 | 39.91335 | 18.50364 | 37026 ft | 490 kts | 162° |
| 2026-05-08 19:11 | 39.85143 | 18.54092 | 37024 ft | 490 kts | 162° |
| 2026-05-08 19:11 | 39.78945 | 18.57817 | 37023 ft | 490 kts | 162° |
| 2026-05-08 19:12 | 39.72755 | 18.61529 | 37023 ft | 490 kts | 162° |
| 2026-05-08 19:12 | 39.66556 | 18.65239 | 37034 ft | 490 kts | 162° |
| 2026-05-08 19:13 | 39.60387 | 18.68925 | 37029 ft | 491 kts | 162° |
| 2026-05-08 19:13 | 39.54190 | 18.72621 | 37032 ft | 491 kts | 162° |
| 2026-05-08 19:14 | 39.48032 | 18.76518 | 37021 ft | 498 kts | 154° |
| 2026-05-08 19:14 | 39.42637 | 18.82294 | 37042 ft | 509 kts | 138° |
| 2026-05-08 19:15 | 39.37736 | 18.88926 | 37028 ft | 510 kts | 138° |
| 2026-05-08 19:15 | 39.32782 | 18.95484 | 37007 ft | 509 kts | 139° |
| 2026-05-08 19:16 | 39.27783 | 19.01972 | 37030 ft | 509 kts | 139° |
| 2026-05-08 19:16 | 39.22819 | 19.08415 | 37031 ft | 509 kts | 139° |
| 2026-05-08 19:17 | 39.17823 | 19.14899 | 37025 ft | 509 kts | 139° |
| 2026-05-08 19:17 | 39.12865 | 19.21328 | 36999 ft | 493 kts | 139° |
| 2026-05-08 19:17 | 39.10486 | 19.24415 | 37003 ft | 478 kts | 139° |
| 2026-05-08 19:18 | 39.08172 | 19.27412 | 37001 ft | 465 kts | 140° |
| 2026-05-08 19:18 | 39.03602 | 19.33298 | 37046 ft | 468 kts | 140° |
| 2026-05-08 19:19 | 38.98973 | 19.39237 | 37056 ft | 477 kts | 140° |
| 2026-05-08 19:19 | 38.94216 | 19.45341 | 36956 ft | 484 kts | 140° |
| 2026-05-08 19:19 | 38.91845 | 19.48381 | 36444 ft | 488 kts | 140° |
| 2026-05-08 19:20 | 38.89455 | 19.51448 | 36000 ft | 484 kts | 140° |
| 2026-05-08 19:20 | 38.88651 | 19.52480 | 35849 ft | 483 kts | 140° |
| 2026-05-08 19:20 | 38.84710 | 19.57528 | 35123 ft | 480 kts | 140° |
| 2026-05-08 19:20 | 38.82347 | 19.60548 | 34694 ft | 478 kts | 140° |
| 2026-05-08 19:21 | 38.79990 | 19.63558 | 34264 ft | 477 kts | 140° |
| 2026-05-08 19:21 | 38.77644 | 19.66548 | 33795 ft | 475 kts | 140° |
| 2026-05-08 19:21 | 38.75304 | 19.69529 | 33323 ft | 473 kts | 140° |
| 2026-05-08 19:21 | 38.72971 | 19.72497 | 32857 ft | 472 kts | 140° |
| 2026-05-08 19:22 | 38.70646 | 19.75453 | 32393 ft | 470 kts | 140° |
| 2026-05-08 19:22 | 38.68326 | 19.78400 | 31891 ft | 470 kts | 140° |
| 2026-05-08 19:22 | 38.66020 | 19.81372 | 31420 ft | 469 kts | 138° |
| 2026-05-08 19:22 | 38.63750 | 19.84360 | 30988 ft | 468 kts | 138° |
| 2026-05-08 19:23 | 38.61480 | 19.87335 | 30557 ft | 465 kts | 139° |
| 2026-05-08 19:23 | 38.59210 | 19.90274 | 30130 ft | 463 kts | 139° |
| 2026-05-08 19:23 | 38.56938 | 19.93182 | 29637 ft | 461 kts | 139° |
| 2026-05-08 19:23 | 38.54670 | 19.96062 | 29151 ft | 458 kts | 139° |
| 2026-05-08 19:24 | 38.52413 | 19.98918 | 28670 ft | 456 kts | 139° |
| 2026-05-08 19:24 | 38.50164 | 20.01759 | 28169 ft | 453 kts | 139° |
| 2026-05-08 19:24 | 38.47931 | 20.04580 | 27706 ft | 451 kts | 139° |
| 2026-05-08 19:24 | 38.45703 | 20.07393 | 27253 ft | 448 kts | 139° |
| 2026-05-08 19:25 | 38.43520 | 20.10149 | 26808 ft | 446 kts | 140° |
| 2026-05-08 19:25 | 38.41320 | 20.12922 | 26365 ft | 443 kts | 140° |
| 2026-05-08 19:25 | 38.38941 | 20.15329 | 25888 ft | 431 kts | 158° |
| 2026-05-08 19:25 | 38.36201 | 20.16645 | 25484 ft | 413 kts | 176° |
| 2026-05-08 19:26 | 38.33406 | 20.16950 | 25058 ft | 394 kts | 191° |
| 2026-05-08 19:26 | 38.30778 | 20.16383 | 24639 ft | 374 kts | 206° |
| 2026-05-08 19:26 | 38.28456 | 20.15098 | 24229 ft | 357 kts | 219° |
| 2026-05-08 19:26 | 38.26517 | 20.13246 | 23818 ft | 341 kts | 231° |
| 2026-05-08 19:27 | 38.25015 | 20.10986 | 23343 ft | 329 kts | 242° |
| 2026-05-08 19:27 | 38.23965 | 20.08452 | 22871 ft | 319 kts | 253° |
| 2026-05-08 19:27 | 38.23370 | 20.05776 | 22395 ft | 311 kts | 264° |
| 2026-05-08 19:27 | 38.23219 | 20.03100 | 21939 ft | 305 kts | 274° |
| 2026-05-08 19:28 | 38.23489 | 20.00453 | 21485 ft | 301 kts | 283° |
| 2026-05-08 19:28 | 38.24083 | 19.97911 | 21045 ft | 298 kts | 289° |
| 2026-05-08 19:28 | 38.24996 | 19.95551 | 20576 ft | 299 kts | 304° |
| 2026-05-08 19:28 | 38.26582 | 19.93814 | 20144 ft | 308 kts | 326° |
| 2026-05-08 19:29 | 38.28668 | 19.93068 | 19833 ft | 319 kts | 349° |
| 2026-05-08 19:29 | 38.30900 | 19.93482 | 19615 ft | 332 kts | 12° |
| 2026-05-08 19:29 | 38.32914 | 19.95025 | 19379 ft | 351 kts | 36° |
| 2026-05-08 19:29 | 38.34442 | 19.97556 | 19172 ft | 373 kts | 58° |
| 2026-05-08 19:30 | 38.35230 | 20.00755 | 18952 ft | 386 kts | 81° |
| 2026-05-08 19:30 | 38.35127 | 20.04170 | 18722 ft | 387 kts | 103° |
| 2026-05-08 19:30 | 38.34141 | 20.07317 | 18496 ft | 381 kts | 126° |
| 2026-05-08 19:30 | 38.32413 | 20.09793 | 18254 ft | 369 kts | 149° |
| 2026-05-08 19:31 | 38.30236 | 20.11271 | 18007 ft | 353 kts | 171° |
| 2026-05-08 19:31 | 38.27868 | 20.11759 | 17765 ft | 340 kts | 187° |
| 2026-05-08 19:31 | 38.25578 | 20.11426 | 17470 ft | 324 kts | 204° |
| 2026-05-08 19:31 | 38.23440 | 20.10585 | 17232 ft | 318 kts | 207° |
| 2026-05-08 19:32 | 38.21348 | 20.09671 | 16976 ft | 317 kts | 207° |
| 2026-05-08 19:32 | 38.19274 | 20.08751 | 16716 ft | 314 kts | 207° |
| 2026-05-08 19:32 | 38.17216 | 20.07845 | 16463 ft | 312 kts | 207° |
| 2026-05-08 19:32 | 38.15162 | 20.06953 | 16211 ft | 310 kts | 207° |
| 2026-05-08 19:33 | 38.13120 | 20.06074 | 15958 ft | 308 kts | 206° |
| 2026-05-08 19:33 | 38.11093 | 20.05206 | 15712 ft | 307 kts | 206° |
| 2026-05-08 19:33 | 38.09075 | 20.04346 | 15469 ft | 305 kts | 206° |
| 2026-05-08 19:33 | 38.07093 | 20.03502 | 15231 ft | 303 kts | 206° |
| 2026-05-08 19:34 | 38.05093 | 20.02653 | 14974 ft | 302 kts | 206° |
| 2026-05-08 19:34 | 38.03105 | 20.01809 | 14735 ft | 300 kts | 206° |
| 2026-05-08 19:34 | 38.01130 | 20.00973 | 14506 ft | 298 kts | 206° |
| 2026-05-08 19:34 | 37.99164 | 20.00140 | 14263 ft | 296 kts | 205° |
| 2026-05-08 19:35 | 37.97118 | 19.99715 | 14021 ft | 309 kts | 180° |
| 2026-05-08 19:35 | 37.95071 | 20.00710 | 13780 ft | 328 kts | 148° |
| 2026-05-08 19:35 | 37.93613 | 20.02982 | 13558 ft | 341 kts | 116° |
| 2026-05-08 19:35 | 37.93197 | 20.05917 | 13419 ft | 341 kts | 84° |
| 2026-05-08 19:36 | 37.93914 | 20.08726 | 13175 ft | 337 kts | 53° |
| 2026-05-08 19:36 | 37.95319 | 20.11052 | 13035 ft | 337 kts | 47° |
| 2026-05-08 19:36 | 37.96718 | 20.13505 | 12793 ft | 344 kts | 52° |
| 2026-05-08 19:36 | 37.98095 | 20.16029 | 12236 ft | 349 kts | 54° |
| 2026-05-08 19:37 | 37.98969 | 20.18855 | 11656 ft | 354 kts | 84° |
| 2026-05-08 19:37 | 37.98680 | 20.21878 | 11309 ft | 342 kts | 115° |
| 2026-05-08 19:37 | 37.97618 | 20.24517 | 10985 ft | 332 kts | 124° |
| 2026-05-08 19:37 | 37.96477 | 20.27041 | 10619 ft | 328 kts | 123° |
| 2026-05-08 19:38 | 37.95410 | 20.29552 | 10478 ft | 320 kts | 121° |
| 2026-05-08 19:38 | 37.94419 | 20.32062 | 10342 ft | 318 kts | 120° |
| 2026-05-08 19:38 | 37.93787 | 20.33744 | 10258 ft | 321 kts | 119° |
| 2026-05-08 19:38 | 37.92846 | 20.36331 | 10128 ft | 326 kts | 118° |
| 2026-05-08 19:39 | 37.91909 | 20.38978 | 9829 ft | 332 kts | 117° |
| 2026-05-08 19:39 | 37.90975 | 20.41657 | 9492 ft | 332 kts | 117° |
| 2026-05-08 19:39 | 37.90054 | 20.44321 | 9125 ft | 331 kts | 117° |
| 2026-05-08 19:39 | 37.89131 | 20.46993 | 8771 ft | 329 kts | 117° |
| 2026-05-08 19:40 | 37.88219 | 20.49633 | 8500 ft | 325 kts | 117° |
| 2026-05-08 19:40 | 37.87321 | 20.52228 | 8158 ft | 319 kts | 117° |
| 2026-05-08 19:40 | 37.86434 | 20.54785 | 7837 ft | 313 kts | 117° |
| 2026-05-08 19:40 | 37.85665 | 20.57343 | 7502 ft | 311 kts | 101° |
| 2026-05-08 19:41 | 37.85860 | 20.60028 | 7190 ft | 307 kts | 66° |
| 2026-05-08 19:41 | 37.87093 | 20.62082 | 6939 ft | 293 kts | 30° |
| 2026-05-08 19:41 | 37.88889 | 20.62968 | 6962 ft | 265 kts | 9° |
| 2026-05-08 19:41 | 37.90606 | 20.63784 | 6683 ft | 267 kts | 27° |
| 2026-05-08 19:42 | 37.92057 | 20.65216 | 6444 ft | 262 kts | 43° |
| 2026-05-08 19:42 | 37.93238 | 20.66945 | 6126 ft | 256 kts | 51° |
| 2026-05-08 19:42 | 37.94271 | 20.68734 | 5834 ft | 247 kts | 54° |
| 2026-05-08 19:42 | 37.95233 | 20.70508 | 5533 ft | 241 kts | 57° |
| 2026-05-08 19:43 | 37.95824 | 20.72453 | 5066 ft | 240 kts | 89° |
| 2026-05-08 19:43 | 37.95370 | 20.74368 | 4738 ft | 219 kts | 135° |
| 2026-05-08 19:43 | 37.94246 | 20.75517 | 4471 ft | 202 kts | 153° |
| 2026-05-08 19:43 | 37.93063 | 20.76438 | 4172 ft | 196 kts | 157° |
| 2026-05-08 19:44 | 37.91879 | 20.77250 | 3893 ft | 191 kts | 159° |
| 2026-05-08 19:44 | 37.90726 | 20.78027 | 3620 ft | 185 kts | 159° |
| 2026-05-08 19:44 | 37.89620 | 20.78775 | 3361 ft | 180 kts | 159° |
| 2026-05-08 19:44 | 37.88532 | 20.79514 | 3101 ft | 170 kts | 159° |
| 2026-05-08 19:45 | 37.87528 | 20.80202 | 2800 ft | 163 kts | 158° |
| 2026-05-08 19:45 | 37.86591 | 20.80980 | 2496 ft | 162 kts | 151° |
| 2026-05-08 19:45 | 37.85701 | 20.81895 | 2284 ft | 165 kts | 147° |
| 2026-05-08 19:45 | 37.84862 | 20.82788 | 2288 ft | 149 kts | 149° |
| 2026-05-08 19:46 | 37.84081 | 20.83604 | 2188 ft | 140 kts | 147° |
| 2026-05-08 19:46 | 37.83352 | 20.84378 | 2079 ft | 136 kts | 148° |
| 2026-05-08 19:46 | 37.81746 | 20.85679 | 1693 ft | 137 kts | 158° |
| 2026-05-08 19:47 | 37.80867 | 20.86160 | 1476 ft | 138 kts | 163° |
| 2026-05-08 19:47 | 37.79975 | 20.86590 | 1270 ft | 137 kts | 165° |
| 2026-05-08 19:47 | 37.79068 | 20.86986 | 1020 ft | 138 kts | 163° |
| 2026-05-08 19:47 | 37.78154 | 20.87317 | 730 ft | 139 kts | 167° |
| 2026-05-08 19:48 | 37.77199 | 20.87606 | 461 ft | 144 kts | 162° |
| 2026-05-08 19:48 | 37.76252 | 20.88010 | 128 ft | 143 kts | 162° |
| 2026-05-08 19:48 | 37.75345 | 20.88338 | 23 ft | 124 kts | 169° |
| 2026-05-08 19:48 | 37.74606 | 20.88606 | 20 ft | 97 kts | 163° |
| 2026-05-08 19:49 | 37.74273 | 20.88737 | 19 ft | 12 kts | 146° |
| 2026-05-08 19:49 | 37.74215 | 20.88743 | 19 ft | 2 kts | 270° |
| 2026-05-08 19:49 | 37.74231 | 20.88736 | 19 ft | 4 kts | 358° |
| 2026-05-08 19:49 | 37.74286 | 20.88727 | 21 ft | 10 kts | 345° |
| 2026-05-08 19:50 | 37.74356 | 20.88701 | 19 ft | 11 kts | 344° |
| 2026-05-08 19:50 | 37.74435 | 20.88672 | 22 ft | 12 kts | 344° |
| 2026-05-08 19:50 | 37.74514 | 20.88643 | 20 ft | 12 kts | 344° |
| 2026-05-08 19:50 | 37.74590 | 20.88614 | 21 ft | 11 kts | 343° |
| 2026-05-08 19:51 | 37.74664 | 20.88585 | 20 ft | 11 kts | 343° |
| 2026-05-08 19:51 | 37.74742 | 20.88557 | 20 ft | 13 kts | 344° |
| 2026-05-08 19:51 | 37.74827 | 20.88525 | 22 ft | 13 kts | 342° |
| 2026-05-08 19:51 | 37.74911 | 20.88494 | 20 ft | 12 kts | 344° |
| 2026-05-08 19:52 | 37.74992 | 20.88464 | 17 ft | 12 kts | 347° |
| 2026-05-08 19:52 | 37.75068 | 20.88490 | 18 ft | 12 kts | 36° |
| 2026-05-08 19:52 | 37.75126 | 20.88530 | 19 ft | 8 kts | 2° |
| 2026-05-08 19:52 | 37.75177 | 20.88514 | 19 ft | 7 kts | 342° |
| 2026-05-08 19:53 | 37.75226 | 20.88496 | 19 ft | 7 kts | 345° |
| 2026-05-08 19:53 | 37.75273 | 20.88479 | 21 ft | 7 kts | 345° |
| 2026-05-08 19:53 | 37.75319 | 20.88462 | 19 ft | 7 kts | 343° |
| 2026-05-08 19:53 | 37.75365 | 20.88445 | 20 ft | 7 kts | 343° |
| 2026-05-08 19:54 | 37.75406 | 20.88428 | 19 ft | 4 kts | 342° |
| 2026-05-08 19:54 | 37.75428 | 20.88429 | 19 ft | 3 kts | 30° |
| 2026-05-08 19:54 | 37.75438 | 20.88463 | 19 ft | 3 kts | 73° |
| 2026-05-08 19:54 | 37.75444 | 20.88488 | 19 ft | 3 kts | 72° |
| 2026-05-08 19:55 | 37.75447 | 20.88501 | 19 ft | 1 kts | 72° |
| 2026-05-08 19:55 | 37.75448 | 20.88505 | 19 ft | 0 kts | 73° |